Time;durP1;ratioP1;P1;durP2;ratioP2;P2;SDS_P1;SDS_P2;PMS_P1;PMS_P2;Temp;Humidity;BMP_temperature;BMP_pressure;BME280_temperature;BME280_humidity;BME280_pressure;Samples;Min_cycle;Max_cycle;Signal;HPM_P1;HPM_P2
2022/12/31 00:00:58;;;;;;;;;0.00;0.00;;;;;16.33;100.00;100341.69;4998664;28;45700;-73
2022/12/31 00:03:23;;;;;;;;;0.00;0.00;;;;;16.30;100.00;100335.81;5013041;28;45402;-72
2022/12/31 00:05:49;;;;;;;;;0.00;0.00;;;;;16.24;100.00;100344.06;4983549;28;45532;-70
2022/12/31 00:08:14;;;;;;;;;0.00;0.00;;;;;16.25;100.00;100333.81;4988325;28;45682;-74
2022/12/31 00:10:40;;;;;;;;;0.00;0.00;;;;;16.23;100.00;100342.38;4982930;28;45842;-71
2022/12/31 00:13:10;;;;;;;;;1.25;0.00;;;;;16.26;100.00;100340.16;4985634;28;45468;-71
2022/12/31 00:15:37;;;;;;;;;0.25;0.00;;;;;16.23;100.00;100338.78;4963295;28;46982;-70
2022/12/31 00:18:02;;;;;;;;;0.50;0.00;;;;;16.18;100.00;100325.72;5005567;28;45908;-72
2022/12/31 00:20:28;;;;;;;;;2.00;1.00;;;;;16.22;100.00;100339.88;4977332;28;45477;-75
2022/12/31 00:22:53;;;;;;;;;2.50;0.75;;;;;16.18;100.00;100328.47;4974406;28;45423;-72
2022/12/31 00:25:19;;;;;;;;;1.00;0.00;;;;;16.21;100.00;100343.72;4976855;28;46276;-71
2022/12/31 00:27:44;;;;;;;;;2.00;0.00;;;;;16.18;100.00;100361.69;4985529;28;45560;-73
2022/12/31 00:30:10;;;;;;;;;0.75;0.75;;;;;16.20;100.00;100358.66;4985138;28;45762;-71
2022/12/31 00:32:36;;;;;;;;;1.00;1.00;;;;;16.17;100.00;100360.00;5017870;28;45761;-73
2022/12/31 00:35:01;;;;;;;;;5.00;1.00;;;;;16.19;100.00;100351.44;4993372;28;45738;-72
2022/12/31 00:37:27;;;;;;;;;0.75;0.75;;;;;16.21;100.00;100374.16;4977259;28;45278;-73
2022/12/31 00:39:52;;;;;;;;;0.75;0.75;;;;;16.20;100.00;100365.03;4970944;28;45323;-74
2022/12/31 00:42:17;;;;;;;;;2.25;1.00;;;;;16.24;100.00;100381.94;4991156;28;45611;-73
2022/12/31 00:44:43;;;;;;;;;0.00;0.00;;;;;16.27;100.00;100378.66;4995520;28;46362;-71
2022/12/31 00:47:08;;;;;;;;;2.00;0.00;;;;;16.26;100.00;100373.38;5016656;28;45486;-72
2022/12/31 00:49:34;;;;;;;;;1.50;1.00;;;;;16.31;100.00;100376.22;4994356;28;45397;-72
2022/12/31 00:51:59;;;;;;;;;0.50;0.50;;;;;16.29;100.00;100378.41;5005818;28;45626;-72
2022/12/31 00:54:25;;;;;;;;;0.25;0.25;;;;;16.28;100.00;100388.63;5004446;28;46464;-71
2022/12/31 00:56:50;;;;;;;;;0.00;0.00;;;;;16.27;100.00;100370.34;4980516;28;45367;-72
2022/12/31 00:59:15;;;;;;;;;0.50;0.50;;;;;16.26;100.00;100374.22;4995425;28;45772;-71
2022/12/31 01:01:41;;;;;;;;;0.00;0.00;;;;;16.27;100.00;100372.28;4980742;28;45598;-72
2022/12/31 01:04:14;;;;;;;;;0.00;0.00;;;;;16.25;100.00;100378.09;4994377;28;47335;-73
2022/12/31 01:06:41;;;;;;;;;2.75;0.00;;;;;16.29;100.00;100393.09;4978257;28;45758;-72
2022/12/31 01:09:07;;;;;;;;;0.00;0.00;;;;;16.30;100.00;100392.00;4968486;28;45867;-69
2022/12/31 01:11:33;;;;;;;;;0.00;0.00;;;;;16.34;100.00;100392.31;4961625;28;45503;-71
2022/12/31 01:14:04;;;;;;;;;3.00;1.00;;;;;16.37;100.00;100391.81;4961895;28;45439;-71
2022/12/31 01:16:38;;;;;;;;;0.50;0.00;;;;;16.39;100.00;100396.00;4973264;28;45421;-70
2022/12/31 01:19:07;;;;;;;;;1.00;1.00;;;;;16.43;100.00;100404.63;4993347;28;45339;-71
2022/12/31 01:21:33;;;;;;;;;0.25;0.00;;;;;16.46;100.00;100419.88;4972467;28;45285;-71
2022/12/31 01:23:59;;;;;;;;;1.25;1.25;;;;;16.48;100.00;100399.16;4945051;28;47640;-71
2022/12/31 01:26:26;;;;;;;;;0.25;0.00;;;;;16.50;100.00;100407.22;4960037;28;45496;-70
2022/12/31 01:28:51;;;;;;;;;0.50;0.50;;;;;16.40;100.00;100391.28;4974675;28;45832;-70
2022/12/31 01:31:18;;;;;;;;;3.50;0.75;;;;;16.52;100.00;100416.91;4973600;28;45710;-74
2022/12/31 01:33:45;;;;;;;;;2.00;0.00;;;;;16.53;100.00;100409.47;4967957;28;45890;-71
2022/12/31 01:36:22;;;;;;;;;2.00;0.50;;;;;16.56;100.00;100422.78;4977178;28;45446;-71
2022/12/31 01:38:48;;;;;;;;;0.50;0.50;;;;;16.59;100.00;100427.81;4980574;28;45450;-71
2022/12/31 01:41:16;;;;;;;;;0.00;0.00;;;;;16.61;100.00;100431.16;4959277;28;45454;-71
2022/12/31 01:43:55;;;;;;;;;0.00;0.00;;;;;16.64;100.00;100427.88;4979080;28;45840;-72
2022/12/31 01:46:39;;;;;;;;;0.00;0.00;;;;;16.68;100.00;100437.34;4981026;28;45715;-71
2022/12/31 01:49:23;;;;;;;;;0.00;0.00;;;;;16.70;100.00;100424.06;4959499;28;46428;-71
2022/12/31 01:52:13;;;;;;;;;1.75;1.00;;;;;16.73;100.00;100422.72;4974249;28;45722;-70
2022/12/31 01:54:43;;;;;;;;;0.00;0.00;;;;;16.75;100.00;100439.91;4971973;28;45783;-72
2022/12/31 01:57:10;;;;;;;;;3.50;0.00;;;;;16.73;100.00;100454.00;4966413;28;45384;-71
2022/12/31 01:59:36;;;;;;;;;0.00;0.00;;;;;16.74;100.00;100452.91;4961774;28;45815;-72
2022/12/31 02:02:03;;;;;;;;;0.50;0.00;;;;;16.74;100.00;100441.84;4980134;28;45690;-70
2022/12/31 02:04:28;;;;;;;;;2.00;0.50;;;;;16.77;100.00;100441.31;4962850;28;48115;-71
2022/12/31 02:06:58;;;;;;;;;0.00;0.00;;;;;16.77;100.00;100440.50;4975664;28;45662;-71
2022/12/31 02:09:24;;;;;;;;;0.00;0.00;;;;;16.75;100.00;100443.53;4996093;28;45652;-71
2022/12/31 02:11:50;;;;;;;;;3.25;0.00;;;;;16.76;100.00;100449.88;4989100;28;45361;-69
2022/12/31 02:14:38;;;;;;;;;0.50;0.50;;;;;16.75;100.00;100443.53;4991338;28;47111;-70
2022/12/31 02:17:06;;;;;;;;;2.00;2.00;;;;;16.76;100.00;100450.72;4989294;28;45426;-71
2022/12/31 02:20:06;;;;;;;;;3.00;0.25;;;;;16.73;100.00;100445.69;4996813;28;45417;-71
2022/12/31 02:22:34;;;;;;;;;0.25;0.00;;;;;16.75;100.00;100459.28;4988017;28;46016;-70
2022/12/31 02:29:51;;;;;;;;;0.25;0.25;;;;;16.76;100.00;100452.66;4972722;28;45756;-79
2022/12/31 02:32:39;;;;;;;;;0.00;0.00;;;;;16.58;100.00;100432.50;5008309;28;46621;-80
2022/12/31 02:35:43;;;;;;;;;0.75;0.00;;;;;16.75;100.00;100449.06;5002377;28;45534;-77
2022/12/31 02:38:30;;;;;;;;;1.00;1.00;;;;;16.44;100.00;100402.69;4994403;28;46311;-77
2022/12/31 02:41:10;;;;;;;;;0.00;0.00;;;;;16.63;100.00;100433.66;4992346;28;45763;-78
2022/12/31 02:43:53;;;;;;;;;0.25;0.00;;;;;16.81;100.00;100463.81;5011475;28;45733;-76
2022/12/31 02:46:46;;;;;;;;;0.00;0.00;;;;;16.62;100.00;100430.06;5009763;28;45771;-79
2022/12/31 02:56:07;;;;;;;;;1.00;1.00;;;;;16.83;100.00;100469.94;4947625;28;45881;-78
2022/12/31 03:02:12;;;;;;;;;1.25;0.00;;;;;16.77;100.00;100452.41;4996982;28;45844;-78
2022/12/31 03:04:40;;;;;;;;;2.00;1.25;;;;;16.83;100.00;100460.78;5017187;28;45431;-78
2022/12/31 03:07:12;;;;;;;;;0.00;0.00;;;;;16.81;100.00;100469.34;5010259;28;45716;-78
2022/12/31 03:09:40;;;;;;;;;1.50;0.50;;;;;16.75;100.00;100462.06;5014582;28;45936;-78
2022/12/31 03:15:06;;;;;;;;;2.25;0.00;;;;;16.88;100.00;100463.66;4992854;28;45385;-79
2022/12/31 03:17:33;;;;;;;;;0.00;0.00;;;;;16.89;100.00;100468.09;5012412;28;45811;-78
2022/12/31 03:22:55;;;;;;;;;0.00;0.00;;;;;16.86;100.00;100476.91;4996677;28;45907;-78
2022/12/31 03:25:33;;;;;;;;;2.50;0.75;;;;;16.89;100.00;100477.22;4997124;28;45439;-79
2022/12/31 03:28:08;;;;;;;;;3.75;1.25;;;;;16.92;100.00;100462.88;5014154;28;45500;-78
2022/12/31 03:30:42;;;;;;;;;0.25;0.25;;;;;16.92;100.00;100486.97;5025303;28;45447;-78
2022/12/31 03:33:11;;;;;;;;;0.00;0.00;;;;;16.93;100.00;100485.84;4988470;28;45821;-79
2022/12/31 03:35:39;;;;;;;;;1.00;0.00;;;;;16.96;100.00;100498.38;4998795;28;45436;-79
2022/12/31 03:38:07;;;;;;;;;0.50;0.50;;;;;16.91;100.00;100480.56;4992113;28;45302;-79
2022/12/31 03:40:39;;;;;;;;;3.00;0.25;;;;;16.96;100.00;100499.22;5003491;28;46040;-77
2022/12/31 03:43:14;;;;;;;;;1.00;1.00;;;;;16.96;100.00;100502.00;4997223;28;46888;-77
2022/12/31 04:08:03;;;;;;;;;;;;;;;;;;;;;
2022/12/31 04:36:23;;;;;;;;;1.00;1.00;;;;;16.70;100.00;100520.97;4764575;29;46167;-82
2022/12/31 05:04:37;;;;;;;;;;;;;;;;;;;;;
2022/12/31 05:17:47;;;;;;;;;2.00;0.75;;;;;16.85;100.00;100530.59;5049171;28;45511;-75
2022/12/31 05:20:12;;;;;;;;;1.00;0.00;;;;;16.85;100.00;100536.13;5022020;28;45675;-74
2022/12/31 05:22:38;;;;;;;;;3.00;1.75;;;;;16.88;100.00;100549.50;5010236;28;45517;-75
2022/12/31 05:25:03;;;;;;;;;0.00;0.00;;;;;16.89;100.00;100531.81;5022552;28;45331;-73
2022/12/31 05:27:29;;;;;;;;;0.75;0.75;;;;;16.89;100.00;100527.09;5023835;28;46524;-73
2022/12/31 05:29:55;;;;;;;;;4.50;0.75;;;;;16.89;100.00;100532.63;5013663;28;45381;-73
2022/12/31 05:32:21;;;;;;;;;0.50;0.50;;;;;16.85;100.00;100527.84;5029266;28;45790;-74
2022/12/31 05:34:46;;;;;;;;;3.75;0.50;;;;;16.83;100.00;100544.72;5026245;28;45770;-74
2022/12/31 05:37:11;;;;;;;;;1.75;1.00;;;;;16.84;100.00;100542.75;5012380;28;45433;-75
2022/12/31 05:39:37;;;;;;;;;1.50;1.50;;;;;16.82;100.00;100553.28;5024756;28;46928;-73
2022/12/31 05:42:03;;;;;;;;;2.00;1.00;;;;;16.79;100.00;100549.06;5029464;28;45685;-76
2022/12/31 05:44:28;;;;;;;;;0.25;0.25;;;;;16.79;100.00;100548.25;5014698;28;45468;-74
2022/12/31 05:46:54;;;;;;;;;2.50;1.00;;;;;16.78;100.00;100547.38;5030094;28;46774;-73
2022/12/31 05:49:19;;;;;;;;;0.75;0.50;;;;;16.77;100.00;100541.03;5018378;28;45750;-76
2022/12/31 05:51:45;;;;;;;;;0.00;0.00;;;;;16.71;100.00;100535.69;4996134;28;45756;-74
2022/12/31 05:54:10;;;;;;;;;1.75;0.00;;;;;16.79;100.00;100542.72;5013196;28;45679;-74
2022/12/31 05:56:36;;;;;;;;;2.00;0.00;;;;;16.78;100.00;100552.94;5013235;28;45715;-73
2022/12/31 05:59:01;;;;;;;;;0.25;0.00;;;;;16.77;100.00;100563.19;5037690;28;45414;-72
2022/12/31 06:01:26;;;;;;;;;1.00;1.00;;;;;16.80;100.00;100561.00;5021577;28;45270;-72
2022/12/31 06:03:52;;;;;;;;;0.00;0.00;;;;;16.76;100.00;100552.34;5020685;28;45466;-74
2022/12/31 06:06:18;;;;;;;;;3.00;0.00;;;;;16.72;100.00;100551.19;5027428;28;45803;-74
2022/12/31 06:08:43;;;;;;;;;1.50;0.50;;;;;16.73;100.00;100559.22;5016863;28;45403;-75
2022/12/31 06:11:09;;;;;;;;;1.25;1.00;;;;;16.71;100.00;100569.75;5012060;28;45418;-74
2022/12/31 06:13:34;;;;;;;;;1.50;1.50;;;;;16.70;100.00;100583.84;5030405;28;47307;-75
2022/12/31 06:16:08;;;;;;;;;1.50;0.50;;;;;16.66;100.00;100566.91;5010488;28;48254;-73
2022/12/31 06:18:33;;;;;;;;;6.25;1.00;;;;;16.66;100.00;100577.13;5013203;28;45748;-72
2022/12/31 06:20:59;;;;;;;;;1.00;1.00;;;;;16.61;100.00;100569.59;5029298;28;45408;-74
2022/12/31 06:23:25;;;;;;;;;1.50;1.50;;;;;16.62;100.00;100585.13;5012319;28;45660;-74
2022/12/31 06:25:50;;;;;;;;;2.25;1.00;;;;;16.62;100.00;100568.50;5015009;28;47303;-74
2022/12/31 06:28:16;;;;;;;;;2.00;1.00;;;;;16.64;100.00;100590.41;5022789;28;45686;-73
2022/12/31 06:30:43;;;;;;;;;0.75;0.75;;;;;16.64;100.00;100598.69;5012267;28;45557;-71
2022/12/31 06:33:08;;;;;;;;;1.00;1.00;;;;;16.64;100.00;100593.16;4991887;28;45450;-72
2022/12/31 06:35:33;;;;;;;;;2.75;0.50;;;;;16.67;100.00;100601.78;5008833;28;45352;-69
2022/12/31 06:37:59;;;;;;;;;1.33;1.00;;;;;16.68;100.00;100599.88;5007287;28;45634;-72
2022/12/31 06:40:24;;;;;;;;;1.75;0.75;;;;;16.70;100.00;100611.53;5006986;28;45813;-74
2022/12/31 06:42:50;;;;;;;;;2.00;1.00;;;;;16.67;100.00;100599.03;5012965;28;45359;-75
2022/12/31 06:45:15;;;;;;;;;1.00;1.00;;;;;16.67;100.00;100596.25;5012011;28;45619;-74
2022/12/31 06:47:41;;;;;;;;;1.50;1.50;;;;;16.62;100.00;100598.09;5015612;28;45403;-73
2022/12/31 06:50:07;;;;;;;;;1.00;1.00;;;;;16.62;100.00;100595.31;5013337;28;45417;-74
2022/12/31 06:52:32;;;;;;;;;1.00;1.00;;;;;16.65;100.00;100617.84;5011043;28;45836;-74
2022/12/31 06:54:59;;;;;;;;;2.75;2.00;;;;;16.67;100.00;100621.19;5009483;28;45626;-74
2022/12/31 06:57:25;;;;;;;;;2.25;1.25;;;;;16.68;100.00;100614.56;4999273;28;45864;-73
2022/12/31 06:59:51;;;;;;;;;2.00;1.25;;;;;16.68;100.00;100620.09;5010355;28;45675;-74
2022/12/31 07:02:29;;;;;;;;;1.75;1.00;;;;;16.68;100.00;100620.09;5007407;28;45622;-73
2022/12/31 07:05:00;;;;;;;;;1.00;1.00;;;;;16.69;100.00;100621.78;5010678;28;45532;-73
2022/12/31 07:07:28;;;;;;;;;1.50;1.50;;;;;16.69;100.00;100609.84;5008733;28;45972;-75
2022/12/31 07:10:19;;;;;;;;;1.75;1.75;;;;;16.68;100.00;100619.25;5020397;28;45668;-75
2022/12/31 07:12:44;;;;;;;;;4.00;4.00;;;;;16.68;100.00;100622.88;5011919;28;45850;-75
2022/12/31 07:15:09;;;;;;;;;1.00;0.00;;;;;16.66;100.00;100615.88;5009761;28;45365;-74
2022/12/31 07:18:05;;;;;;;;;1.00;1.00;;;;;16.64;100.00;100615.31;5015214;28;45678;-74
2022/12/31 07:20:31;;;;;;;;;3.25;2.00;;;;;16.64;100.00;100618.91;5010097;28;45409;-74
2022/12/31 07:22:57;;;;;;;;;2.00;1.00;;;;;16.61;100.00;100619.41;5011617;28;45769;-74
2022/12/31 07:25:23;;;;;;;;;2.00;2.00;;;;;16.60;100.00;100612.19;5011429;28;45573;-75
2022/12/31 07:28:19;;;;;;;;;4.00;1.00;;;;;16.60;100.00;100617.72;5020157;28;46017;-74
2022/12/31 07:31:13;;;;;;;;;2.75;1.75;;;;;16.60;100.00;100637.13;5014772;28;46028;-73
2022/12/31 07:33:46;;;;;;;;;4.00;2.75;;;;;16.56;100.00;100627.66;5021945;28;46602;-74
2022/12/31 07:36:20;;;;;;;;;3.25;2.00;;;;;16.56;100.00;100638.72;5009545;28;46405;-74
2022/12/31 07:38:57;;;;;;;;;2.75;2.75;;;;;16.53;100.00;100634.53;5025723;28;45788;-73
2022/12/31 07:41:48;;;;;;;;;2.00;2.00;;;;;16.54;100.00;100643.66;5009058;28;45355;-72
2022/12/31 07:44:38;;;;;;;;;1.50;1.00;;;;;16.53;100.00;100639.25;5025424;28;45853;-74
2022/12/31 07:47:12;;;;;;;;;3.00;1.00;;;;;16.53;100.00;100644.78;5022979;28;47068;-76
2022/12/31 07:49:41;;;;;;;;;5.50;3.00;;;;;16.53;100.00;100644.78;5008616;28;45675;-76
2022/12/31 07:52:07;;;;;;;;;4.25;1.00;;;;;16.51;100.00;100649.69;5010431;28;45765;-75
2022/12/31 07:54:33;;;;;;;;;2.00;1.00;;;;;16.52;100.00;100657.75;5004964;28;45655;-74
2022/12/31 07:56:58;;;;;;;;;4.00;4.00;;;;;16.53;100.00;100662.22;4986416;28;47058;-74
2022/12/31 07:59:48;;;;;;;;;3.00;3.00;;;;;16.54;100.00;100671.34;5013559;28;45801;-74
2022/12/31 08:02:22;;;;;;;;;2.00;2.00;;;;;16.55;100.00;100676.63;5002527;28;45678;-73
2022/12/31 08:04:53;;;;;;;;;6.67;2.67;;;;;16.45;100.00;100661.78;5004682;28;45781;-73
2022/12/31 08:07:35;;;;;;;;;7.00;2.00;;;;;16.50;100.00;100672.97;5008843;28;46329;-74
2022/12/31 08:10:28;;;;;;;;;3.00;1.75;;;;;16.56;100.00;100683.03;5000630;28;45863;-72
2022/12/31 08:13:01;;;;;;;;;2.67;2.00;;;;;16.56;100.00;100663.66;5016665;28;45595;-73
2022/12/31 08:15:27;;;;;;;;;2.67;2.67;;;;;16.58;100.00;100680.84;5007916;28;47196;-72
2022/12/31 08:17:52;;;;;;;;;5.00;3.00;;;;;16.59;100.00;100682.53;5007112;28;46097;-71
2022/12/31 08:20:18;;;;;;;;;3.67;2.00;;;;;16.58;100.00;100676.13;5002719;28;45711;-69
2022/12/31 08:23:21;;;;;;;;;2.50;2.50;;;;;16.63;100.00;100689.25;5010051;28;45402;-70
2022/12/31 08:26:20;;;;;;;;;5.00;1.00;;;;;16.57;100.00;100690.22;5004923;28;45480;-68
2022/12/31 08:29:13;;;;;;;;;0.00;0.00;;;;;16.61;100.00;100699.72;5001709;28;45984;-68
2022/12/31 08:32:09;;;;;;;;;4.00;3.67;;;;;16.62;100.00;100714.38;5004867;28;45848;-70
2022/12/31 08:34:56;;;;;;;;;2.50;2.00;;;;;16.63;100.00;100705.88;4998181;28;45546;-70
2022/12/31 08:37:42;;;;;;;;;0.25;0.25;;;;;16.61;100.00;100716.34;5002863;28;45540;-69
2022/12/31 08:41:12;;;;;;;;;1.67;1.67;;;;;16.56;100.00;100710.72;5000260;28;45670;-70
2022/12/31 08:43:44;;;;;;;;;9.00;7.00;;;;;16.56;100.00;100743.94;4965307;28;45973;-70
2022/12/31 08:46:28;;;;;;;;;2.50;2.50;;;;;16.55;100.00;100706.25;4949139;28;45737;-72
2022/12/31 08:48:53;;;;;;;;;3.67;2.33;;;;;16.54;100.00;100715.63;4990451;28;45818;-69
2022/12/31 08:51:22;;;;;;;;;5.00;5.00;;;;;16.55;100.00;100736.72;4988167;28;47515;-72
2022/12/31 08:53:48;;;;;;;;;8.33;7.33;;;;;16.54;100.00;100741.41;4994495;28;45748;-72
2022/12/31 08:56:30;;;;;;;;;2.00;2.00;;;;;16.48;100.00;100720.28;5000075;28;45387;-71
2022/12/31 08:59:22;;;;;;;;;2.67;2.67;;;;;16.53;100.00;100749.97;5008584;28;47131;-70
2022/12/31 09:02:06;;;;;;;;;4.00;2.00;;;;;16.52;100.00;100731.69;4999300;28;46699;-72
2022/12/31 09:04:57;;;;;;;;;2.00;2.00;;;;;16.53;100.00;100747.22;5014043;28;45715;-69
2022/12/31 09:07:36;;;;;;;;;6.00;4.00;;;;;16.53;100.00;100747.22;4996045;28;45461;-70
2022/12/31 09:10:17;;;;;;;;;3.50;3.25;;;;;16.53;100.00;100756.34;4994267;28;45801;-71
2022/12/31 09:12:52;;;;;;;;;4.33;4.00;;;;;16.54;100.00;100759.94;4997456;28;45930;-70
2022/12/31 09:15:52;;;;;;;;;7.33;6.00;;;;;16.56;100.00;100752.25;4995539;28;45851;-70
2022/12/31 09:18:17;;;;;;;;;7.00;4.67;;;;;16.66;100.00;100757.97;4990720;28;45545;-70
2022/12/31 09:20:43;;;;;;;;;2.75;2.00;;;;;16.75;100.00;100750.94;4996417;28;45555;-70
2022/12/31 09:23:09;;;;;;;;;9.33;8.33;;;;;16.86;100.00;100753.88;4991412;28;45504;-69
2022/12/31 09:25:58;;;;;;;;;3.00;3.00;;;;;16.81;100.00;100745.47;5001516;28;45358;-70
2022/12/31 09:28:48;;;;;;;;;4.75;4.25;;;;;16.92;100.00;100761.22;5012300;28;45657;-71
2022/12/31 09:31:13;;;;;;;;;7.75;3.75;;;;;16.99;100.00;100753.59;5004277;28;45533;-70
2022/12/31 09:34:03;;;;;;;;;8.33;6.33;;;;;17.00;100.00;100748.88;4996739;28;46317;-70
2022/12/31 09:36:42;;;;;;;;;11.00;7.00;;;;;17.00;100.00;100749.69;5000430;28;45510;-68
2022/12/31 09:39:20;;;;;;;;;4.75;2.75;;;;;17.01;100.00;100743.09;5011364;28;45497;-70
2022/12/31 09:42:20;;;;;;;;;3.00;2.00;;;;;17.03;100.00;100746.44;5009799;28;45738;-70
2022/12/31 09:45:05;;;;;;;;;3.25;3.00;;;;;17.00;100.00;100738.63;4993142;28;45401;-69
2022/12/31 09:48:08;;;;;;;;;6.00;5.25;;;;;17.00;100.00;100749.69;4992724;28;45378;-69
2022/12/31 09:50:40;;;;;;;;;28.33;24.33;;;;;17.00;100.00;100749.69;5004936;28;45758;-69
2022/12/31 09:53:17;;;;;;;;;15.00;10.33;;;;;17.01;100.00;100769.97;5006330;28;45339;-70
2022/12/31 09:56:16;;;;;;;;;4.33;3.00;;;;;17.02;100.00;100766.94;4992767;28;45811;-70
2022/12/31 09:59:02;;;;;;;;;5.75;2.00;;;;;17.01;100.00;100770.78;5019003;28;45284;-72
2022/12/31 10:01:48;;;;;;;;;24.00;18.67;;;;;16.96;100.00;100750.47;5001836;28;45718;-72
2022/12/31 10:04:49;;;;;;;;;8.00;4.33;;;;;17.00;100.00;100768.25;5008884;28;45767;-73
2022/12/31 10:07:21;;;;;;;;;4.25;3.00;;;;;17.00;100.00;100771.88;4984853;28;45449;-73
2022/12/31 10:09:53;;;;;;;;;5.00;5.00;;;;;16.99;100.00;100775.75;5006353;28;45506;-75
2022/12/31 10:12:53;;;;;;;;;7.00;5.00;;;;;16.95;100.00;100763.47;5007478;28;45433;-73
2022/12/31 10:15:56;;;;;;;;;3.50;2.50;;;;;16.93;100.00;100768.41;5011027;28;45540;-72
2022/12/31 10:18:41;;;;;;;;;4.00;2.75;;;;;16.98;100.00;100753.84;5017197;28;46537;-72
2022/12/31 10:21:18;;;;;;;;;3.25;2.25;;;;;17.06;100.00;100748.69;5001185;28;45719;-70
2022/12/31 10:23:46;;;;;;;;;3.00;3.00;;;;;17.16;100.00;100755.50;5011196;28;45867;-80
2022/12/31 10:26:31;;;;;;;;;5.00;4.00;;;;;17.24;100.00;100752.31;5018672;28;46138;-71
2022/12/31 10:29:27;;;;;;;;;4.67;3.00;;;;;17.29;100.00;100755.16;5019959;28;48767;-73
2022/12/31 10:32:13;;;;;;;;;3.00;3.00;;;;;17.41;100.00;100761.44;5014218;28;45349;-72
2022/12/31 10:34:58;;;;;;;;;2.00;2.00;;;;;17.45;100.00;100746.00;5000149;28;45620;-72
2022/12/31 10:37:33;;;;;;;;;5.50;2.50;;;;;17.55;100.00;100747.22;5019316;28;45742;-72
2022/12/31 10:40:08;;;;;;;;;0.25;0.00;;;;;17.59;100.00;100748.38;5012505;28;46571;-74
2022/12/31 10:43:04;;;;;;;;;4.00;2.25;;;;;17.67;100.00;100749.88;5007825;28;45537;-72
2022/12/31 10:45:52;;;;;;;;;3.67;3.00;;;;;17.70;100.00;100733.56;4998496;28;45756;-73
2022/12/31 10:49:05;;;;;;;;;5.75;3.00;;;;;17.70;100.00;100733.56;5004781;28;45872;-72
2022/12/31 10:51:43;;;;;;;;;4.00;3.00;;;;;17.76;100.00;100734.47;4974477;28;45785;-72
2022/12/31 10:54:17;;;;;;;;;5.67;3.00;;;;;17.79;100.00;100726.47;5004723;28;45635;-74
2022/12/31 10:56:45;;;;;;;;;3.75;3.75;;;;;17.96;100.00;100728.38;5010101;28;45378;-68
2022/12/31 10:59:43;;;;;;;;;5.33;3.00;;;;;18.14;100.00;100728.03;5016511;28;45478;-73
2022/12/31 11:02:39;;;;;;;;;5.50;4.75;;;;;18.34;100.00;100724.66;4995942;28;45810;-73
2022/12/31 11:05:26;;;;;;;;;4.67;4.33;;;;;18.76;100.00;100722.25;5015132;28;45378;-71
2022/12/31 11:07:54;;;;;;;;;3.75;3.50;;;;;19.09;100.00;100710.06;5013558;28;45467;-72
2022/12/31 11:11:02;;;;;;;;;4.25;4.00;;;;;19.31;100.00;100712.72;5010621;28;45431;-70
2022/12/31 11:14:01;;;;;;;;;2.25;2.25;;;;;19.41;100.00;100706.38;5011586;28;45536;-71
2022/12/31 11:16:48;;;;;;;;;2.75;2.25;;;;;19.37;100.00;100713.56;5004218;28;46027;-69
2022/12/31 11:19:26;;;;;;;;;3.75;3.00;;;;;19.28;100.00;100718.81;5018189;28;45314;-75
2022/12/31 11:22:24;;;;;;;;;4.00;3.50;;;;;19.34;100.00;100714.97;5014574;28;45430;-75
2022/12/31 11:25:21;;;;;;;;;6.50;3.00;;;;;19.42;100.00;100699.72;5008880;28;45448;-77
2022/12/31 11:28:31;;;;;;;;;12.00;10.33;;;;;19.41;100.00;100704.41;5014473;28;45862;-79
2022/12/31 11:31:31;;;;;;;;;3.25;2.75;;;;;19.45;100.00;100704.72;4974157;28;45720;-77
2022/12/31 11:34:18;;;;;;;;;1.50;1.50;;;;;19.39;100.00;100697.47;4998224;28;45577;-77
2022/12/31 11:36:59;;;;;;;;;3.25;3.25;;;;;19.30;100.00;100710.22;5008215;28;45904;-79
2022/12/31 11:39:43;;;;;;;;;4.50;3.75;;;;;19.20;100.00;100710.97;5017289;28;45219;-77
2022/12/31 11:42:49;;;;;;;;;4.00;2.00;;;;;19.13;100.00;100702.88;5027279;28;45635;-78
2022/12/31 11:45:56;;;;;;;;;4.75;4.25;;;;;19.12;100.00;100703.97;5007380;28;45279;-78
2022/12/31 11:48:52;;;;;;;;;38.33;35.00;;;;;19.28;100.00;100695.72;5017726;28;45369;-77
2022/12/31 11:51:42;;;;;;;;;4.75;3.75;;;;;19.34;100.00;100691.84;5010963;28;45532;-77
2022/12/31 11:54:32;;;;;;;;;7.33;6.00;;;;;19.33;100.00;100695.75;4998193;28;45362;-76
2022/12/31 11:57:28;;;;;;;;;3.75;3.00;;;;;19.32;100.00;100696.84;5010877;28;45422;-78
2022/12/31 12:00:19;;;;;;;;;4.00;3.25;;;;;19.34;100.00;100691.84;5010457;28;45505;-77
2022/12/31 12:03:04;;;;;;;;;3.75;2.00;;;;;19.25;100.00;100690.69;5005721;28;45647;-76
2022/12/31 12:05:30;;;;;;;;;2.50;2.50;;;;;19.18;100.00;100694.56;5019252;28;45392;-79
2022/12/31 12:07:56;;;;;;;;;1.50;1.50;;;;;19.21;100.00;100690.41;5017967;28;45333;-78
2022/12/31 12:10:29;;;;;;;;;3.00;3.00;;;;;19.25;100.00;100683.19;5009953;28;45871;-78
2022/12/31 12:12:57;;;;;;;;;45.33;38.00;;;;;19.30;100.00;100669.31;5004745;28;45446;-74
2022/12/31 12:15:31;;;;;;;;;5.33;5.33;;;;;19.29;100.00;100678.75;5009978;28;45690;-74
2022/12/31 12:18:22;;;;;;;;;5.00;4.25;;;;;19.31;100.00;100679.34;5005630;28;45358;-73
2022/12/31 12:20:48;;;;;;;;;5.50;3.00;;;;;19.33;100.00;100673.50;5001614;28;46081;-70
2022/12/31 12:23:20;;;;;;;;;4.25;3.25;;;;;19.35;100.00;100660.16;5008609;28;45885;-74
2022/12/31 12:25:46;;;;;;;;;4.50;3.50;;;;;19.30;100.00;100651.81;5007394;28;45728;-74
2022/12/31 12:28:17;;;;;;;;;2.25;2.25;;;;;19.26;100.00;100659.84;5006704;28;45464;-75
2022/12/31 12:30:50;;;;;;;;;1.00;1.00;;;;;19.16;100.00;100641.16;5003242;28;46268;-72
2022/12/31 12:33:18;;;;;;;;;14.50;5.25;;;;;19.14;100.00;100626.69;5014392;28;45551;-71
2022/12/31 12:35:45;;;;;;;;;5.25;2.50;;;;;19.11;100.00;100624.44;5010704;28;45404;-72
2022/12/31 12:38:20;;;;;;;;;3.25;3.25;;;;;19.04;100.00;100621.06;4998207;28;45751;-73
2022/12/31 12:41:02;;;;;;;;;5.50;4.50;;;;;19.04;100.00;100609.94;5017139;28;48430;-74
2022/12/31 12:43:34;;;;;;;;;6.50;4.00;;;;;18.99;100.00;100619.09;4993829;28;45512;-73
2022/12/31 12:46:03;;;;;;;;;3.25;2.00;;;;;18.94;100.00;100612.69;5023104;28;45694;-71
2022/12/31 12:48:46;;;;;;;;;4.50;1.50;;;;;18.84;100.00;100608.69;5009699;28;45674;-73
2022/12/31 12:51:40;;;;;;;;;4.25;2.00;;;;;18.77;100.00;100610.88;5011072;28;46467;-73
2022/12/31 12:54:12;;;;;;;;;6.00;6.00;;;;;18.75;100.00;100607.50;5002004;28;45496;-72
2022/12/31 12:57:06;;;;;;;;;2.25;2.25;;;;;18.68;100.00;100604.97;5014875;28;45365;-71
2022/12/31 13:00:07;;;;;;;;;4.00;4.00;;;;;18.60;100.00;100615.75;4997526;28;47164;-71
2022/12/31 13:02:47;;;;;;;;;4.00;3.00;;;;;18.53;100.00;100616.81;4993330;28;46245;-73
2022/12/31 13:05:47;;;;;;;;;2.00;2.00;;;;;18.52;100.00;100603.19;5007071;28;45651;-72
2022/12/31 13:08:29;;;;;;;;;4.00;3.25;;;;;18.49;100.00;100604.53;5021374;28;45787;-73
2022/12/31 13:11:28;;;;;;;;;3.00;1.25;;;;;18.48;100.00;100608.41;5010707;28;45375;-74
2022/12/31 13:14:00;;;;;;;;;2.00;2.00;;;;;18.41;100.00;100598.63;4994672;28;45696;-74
2022/12/31 13:16:52;;;;;;;;;3.00;3.00;;;;;18.35;100.00;100604.16;5004531;28;45490;-72
2022/12/31 13:19:36;;;;;;;;;4.25;3.00;;;;;18.30;100.00;100614.38;4980959;28;45398;-72
2022/12/31 13:22:07;;;;;;;;;2.50;2.00;;;;;18.26;100.00;100599.34;5012521;28;45627;-74
2022/12/31 13:24:38;;;;;;;;;2.75;2.50;;;;;18.21;100.00;100596.53;5010329;28;45781;-72
2022/12/31 13:27:25;;;;;;;;;1.25;1.25;;;;;18.17;100.00;100616.50;4994951;28;45366;-76
2022/12/31 13:29:53;;;;;;;;;3.75;2.50;;;;;18.17;100.00;100601.75;5018285;28;45402;-72
2022/12/31 13:32:39;;;;;;;;;2.75;2.75;;;;;18.11;100.00;100603.69;5007913;28;46308;-70
2022/12/31 13:35:22;;;;;;;;;4.50;3.25;;;;;18.01;100.00;100617.44;4995492;28;45821;-70
2022/12/31 13:37:51;;;;;;;;;3.00;3.00;;;;;17.97;100.00;100621.84;5011366;28;45459;-72
2022/12/31 13:40:25;;;;;;;;;4.00;2.00;;;;;17.95;100.00;100610.16;5012796;28;45410;-71
2022/12/31 13:42:59;;;;;;;;;2.00;2.00;;;;;17.95;100.00;100621.28;4996172;28;45915;-72
2022/12/31 13:45:40;;;;;;;;;3.75;2.50;;;;;17.91;100.00;100609.00;5015772;28;46315;-72